createdAt,value
2022-12-23T00:03:39.981Z,100351.69
2022-12-23T00:14:21.781Z,100345.72
2022-12-23T00:24:43.455Z,100352.66
2022-12-23T00:35:04.981Z,100363.91
2022-12-23T00:45:26.572Z,100356.88
2022-12-23T00:55:48.722Z,100363.66
2022-12-23T01:06:10.151Z,100367.94
2022-12-23T01:16:31.628Z,100364.56
2022-12-23T01:26:53.072Z,100361.94
2022-12-23T01:37:14.436Z,100380.88
2022-12-23T01:47:38.804Z,100386.91
2022-12-23T01:58:08.027Z,100390.34
2022-12-23T02:08:48.270Z,100397.91
2022-12-23T02:19:31.722Z,100427.03
2022-12-23T02:30:08.075Z,100423.66
2022-12-23T02:40:29.395Z,100420.16
2022-12-23T02:50:52.495Z,100427.91
2022-12-23T03:01:15.260Z,100447.72
2022-12-23T03:11:44.910Z,100453.72
2022-12-23T03:22:25.973Z,100470.06
2022-12-23T03:32:49.320Z,100483.00
2022-12-23T03:43:13.908Z,100478.84
2022-12-23T03:53:38.568Z,100478.84
2022-12-23T04:04:09.181Z,100498.72
2022-12-23T04:14:31.730Z,100526.22
2022-12-23T04:24:53.082Z,100532.53
2022-12-23T04:35:14.496Z,100533.44
2022-12-23T04:45:35.850Z,100545.56
2022-12-23T04:55:57.222Z,100551.59
2022-12-23T05:06:18.587Z,100556.75
2022-12-23T05:16:40.103Z,100556.69
2022-12-23T05:27:01.494Z,100555.94
2022-12-23T05:37:22.852Z,100551.75
2022-12-23T05:47:44.254Z,100551.97
2022-12-23T05:58:05.811Z,100551.97
2022-12-23T06:08:27.184Z,100574.47
2022-12-23T06:18:48.559Z,100596.81
2022-12-23T06:29:10.542Z,100592.63
2022-12-23T06:39:31.991Z,100631.31
2022-12-23T06:49:53.434Z,100628.78
2022-12-23T07:00:15.190Z,100617.88
2022-12-23T07:10:36.611Z,100635.06
2022-12-23T07:20:59.774Z,100643.56
2022-12-23T07:31:21.410Z,100658.91
2022-12-23T07:41:42.889Z,100677.88
2022-12-23T07:52:04.373Z,100703.81
2022-12-23T08:02:26.010Z,100707.34
2022-12-23T08:12:47.574Z,100732.06
2022-12-23T08:23:08.935Z,100741.41
2022-12-23T08:33:30.445Z,100736.19
2022-12-23T08:43:51.981Z,100729.19
2022-12-23T08:54:13.354Z,100725.69
2022-12-23T09:04:36.032Z,100703.38
2022-12-23T09:14:57.424Z,100697.03
2022-12-23T09:25:18.822Z,100711.50
2022-12-23T09:35:40.232Z,100725.00
2022-12-23T09:46:20.491Z,100706.13
2022-12-23T09:56:41.915Z,100719.03
2022-12-23T10:07:06.380Z,100712.25
2022-12-23T10:17:35.036Z,100702.75
2022-12-23T10:27:56.420Z,100689.81
2022-12-23T10:38:23.866Z,100681.97
2022-12-23T10:49:08.738Z,100677.41
2022-12-23T10:59:35.442Z,100656.38
2022-12-23T11:10:01.195Z,100642.28
2022-12-23T11:20:22.592Z,100623.19
2022-12-23T11:30:55.398Z,100628.25
2022-12-23T11:41:22.321Z,100617.84
2022-12-23T11:51:44.549Z,100626.44
2022-12-23T12:02:14.745Z,100615.19
2022-12-23T12:12:36.230Z,100609.94
2022-12-23T12:23:08.926Z,100599.72
2022-12-23T12:33:34.393Z,100555.50
2022-12-23T12:44:00.458Z,100552.03
2022-12-23T12:54:40.096Z,100535.63
2022-12-23T13:05:07.574Z,100536.16
2022-12-23T13:15:38.055Z,100522.19
2022-12-23T13:26:05.153Z,100509.28
2022-12-23T13:36:26.663Z,100507.72
2022-12-23T13:47:00.469Z,100510.25
2022-12-23T13:57:36.502Z,100509.22
2022-12-23T14:08:03.464Z,100496.41
2022-12-23T14:18:40.268Z,100495.66
2022-12-23T14:29:21.788Z,100474.97
2022-12-23T14:39:43.422Z,100460.38
2022-12-23T14:50:23.735Z,100460.50
2022-12-23T15:00:56.454Z,100444.38
2022-12-23T15:11:22.780Z,100438.59
2022-12-23T15:21:47.513Z,100433.59
2022-12-23T15:32:11.859Z,100426.00
2022-12-23T15:42:35.433Z,100423.59
2022-12-23T15:53:01.821Z,100423.75
2022-12-23T16:03:34.081Z,100413.66
2022-12-23T16:14:00.576Z,100418.94
2022-12-23T16:24:22.106Z,100412.06
2022-12-23T16:34:45.394Z,100398.41
2022-12-23T16:45:07.073Z,100378.91
2022-12-23T16:55:28.427Z,100377.31
2022-12-23T17:05:49.839Z,100367.00
2022-12-23T17:16:21.892Z,100362.56
2022-12-23T17:26:43.272Z,100354.03
2022-12-23T17:37:12.513Z,100358.38
2022-12-23T17:47:33.921Z,100358.38
2022-12-23T17:57:55.338Z,100363.59
2022-12-23T18:08:16.956Z,100365.50
2022-12-23T18:18:46.145Z,100370.84
2022-12-23T18:29:08.393Z,100367.44
2022-12-23T18:39:29.750Z,100372.69
2022-12-23T18:49:51.107Z,100367.69
2022-12-23T19:00:23.027Z,100360.91
2022-12-23T19:10:45.714Z,100368.69
2022-12-23T19:21:07.235Z,100367.84
2022-12-23T19:31:29.912Z,100363.59
2022-12-23T19:41:51.374Z,100374.66
2022-12-23T19:52:12.791Z,100378.31
2022-12-23T20:02:34.215Z,100382.63
2022-12-23T20:12:55.603Z,100399.00
2022-12-23T20:23:17.056Z,100395.69
2022-12-23T20:33:39.011Z,100401.69
2022-12-23T20:44:33.388Z,100395.63
2022-12-23T20:54:41.844Z,100404.25
2022-12-23T21:05:03.321Z,100414.63
2022-12-23T21:15:24.746Z,100404.41
2022-12-23T21:25:46.112Z,100412.19
2022-12-23T21:36:07.996Z,100432.78
2022-12-23T21:46:29.887Z,100432.78
2022-12-23T21:56:51.330Z,100431.16
2022-12-23T22:07:12.846Z,100433.94
2022-12-23T22:17:34.330Z,100437.38
2022-12-23T22:27:57.462Z,100441.63
2022-12-23T22:38:18.848Z,100442.56
2022-12-23T22:48:40.261Z,100431.50
2022-12-23T22:59:01.670Z,100431.59
2022-12-23T23:09:23.080Z,100440.22
2022-12-23T23:19:44.519Z,100454.84
2022-12-23T23:30:06.403Z,100450.47
2022-12-23T23:40:28.033Z,100433.28
2022-12-23T23:50:49.464Z,100446.28
